sensor_id;sensor_type;location;lat;lon;timestamp;temperature;humidity
56044;DHT22;41912;51.022;3.664;2023-04-24T00:01:25;11.40;99.90
56044;DHT22;41912;51.022;3.664;2023-04-24T00:03:51;11.40;99.90
56044;DHT22;41912;51.022;3.664;2023-04-24T00:06:16;11.40;99.90
56044;DHT22;41912;51.022;3.664;2023-04-24T00:08:42;11.40;99.90
56044;DHT22;41912;51.022;3.664;2023-04-24T00:11:08;11.40;99.90
56044;DHT22;41912;51.022;3.664;2023-04-24T00:13:35;11.30;99.90
56044;DHT22;41912;51.022;3.664;2023-04-24T00:16:01;11.30;99.90
56044;DHT22;41912;51.022;3.664;2023-04-24T00:18:26;11.30;99.90
56044;DHT22;41912;51.022;3.664;2023-04-24T00:20:52;11.20;99.90
56044;DHT22;41912;51.022;3.664;2023-04-24T00:23:17;11.20;99.90
56044;DHT22;41912;51.022;3.664;2023-04-24T00:25:43;11.30;99.90
56044;DHT22;41912;51.022;3.664;2023-04-24T00:28:09;11.20;99.90
56044;DHT22;41912;51.022;3.664;2023-04-24T00:30:35;11.20;99.90
56044;DHT22;41912;51.022;3.664;2023-04-24T00:33:01;11.30;99.90
56044;DHT22;41912;51.022;3.664;2023-04-24T00:35:26;11.30;99.90
56044;DHT22;41912;51.022;3.664;2023-04-24T00:37:52;11.30;99.90
56044;DHT22;41912;51.022;3.664;2023-04-24T00:40:18;11.20;99.90
56044;DHT22;41912;51.022;3.664;2023-04-24T00:42:44;11.10;99.90
56044;DHT22;41912;51.022;3.664;2023-04-24T00:45:10;11.10;99.90
56044;DHT22;41912;51.022;3.664;2023-04-24T00:47:36;11.10;99.90
56044;DHT22;41912;51.022;3.664;2023-04-24T00:50:06;11.20;99.90
56044;DHT22;41912;51.022;3.664;2023-04-24T00:52:32;11.20;99.90
56044;DHT22;41912;51.022;3.664;2023-04-24T00:54:58;11.30;99.90
56044;DHT22;41912;51.022;3.664;2023-04-24T00:57:24;11.20;99.90
56044;DHT22;41912;51.022;3.664;2023-04-24T00:59:51;11.10;99.90
56044;DHT22;41912;51.022;3.664;2023-04-24T01:02:18;11.10;99.90
56044;DHT22;41912;51.022;3.664;2023-04-24T01:04:45;11.10;99.90
56044;DHT22;41912;51.022;3.664;2023-04-24T01:07:10;11.10;99.90
56044;DHT22;41912;51.022;3.664;2023-04-24T01:09:44;11.10;99.90
56044;DHT22;41912;51.022;3.664;2023-04-24T01:12:12;11.00;99.90
56044;DHT22;41912;51.022;3.664;2023-04-24T01:14:38;11.00;99.90
56044;DHT22;41912;51.022;3.664;2023-04-24T01:17:04;10.90;99.90
56044;DHT22;41912;51.022;3.664;2023-04-24T01:19:30;10.90;99.90
56044;DHT22;41912;51.022;3.664;2023-04-24T01:21:58;11.00;99.90
56044;DHT22;41912;51.022;3.664;2023-04-24T01:24:24;10.90;99.90
56044;DHT22;41912;51.022;3.664;2023-04-24T01:26:50;10.90;99.90
56044;DHT22;41912;51.022;3.664;2023-04-24T01:29:16;10.90;99.90
56044;DHT22;41912;51.022;3.664;2023-04-24T01:31:41;10.90;99.90
56044;DHT22;41912;51.022;3.664;2023-04-24T01:34:07;10.80;99.90
56044;DHT22;41912;51.022;3.664;2023-04-24T01:36:34;10.80;99.90
56044;DHT22;41912;51.022;3.664;2023-04-24T01:39:01;10.80;99.90
56044;DHT22;41912;51.022;3.664;2023-04-24T01:41:28;10.80;99.90
56044;DHT22;41912;51.022;3.664;2023-04-24T01:43:54;10.80;99.90
56044;DHT22;41912;51.022;3.664;2023-04-24T01:46:20;10.80;99.90
56044;DHT22;41912;51.022;3.664;2023-04-24T01:48:46;10.80;99.90
56044;DHT22;41912;51.022;3.664;2023-04-24T01:51:12;10.90;99.90
56044;DHT22;41912;51.022;3.664;2023-04-24T01:53:37;10.90;99.90
56044;DHT22;41912;51.022;3.664;2023-04-24T01:56:03;10.90;99.90
56044;DHT22;41912;51.022;3.664;2023-04-24T01:58:29;10.80;99.90
56044;DHT22;41912;51.022;3.664;2023-04-24T02:00:58;10.90;99.90
56044;DHT22;41912;51.022;3.664;2023-04-24T02:03:26;10.80;99.90
56044;DHT22;41912;51.022;3.664;2023-04-24T02:05:51;10.80;99.90
56044;DHT22;41912;51.022;3.664;2023-04-24T02:08:17;10.80;99.90
56044;DHT22;41912;51.022;3.664;2023-04-24T02:10:43;10.80;99.90
56044;DHT22;41912;51.022;3.664;2023-04-24T02:13:09;10.80;99.90
56044;DHT22;41912;51.022;3.664;2023-04-24T02:15:35;10.70;99.90
56044;DHT22;41912;51.022;3.664;2023-04-24T02:18:01;10.70;99.90
56044;DHT22;41912;51.022;3.664;2023-04-24T02:20:27;10.70;99.90
56044;DHT22;41912;51.022;3.664;2023-04-24T02:22:52;10.90;99.90
56044;DHT22;41912;51.022;3.664;2023-04-24T02:25:18;10.70;99.90
56044;DHT22;41912;51.022;3.664;2023-04-24T02:27:44;10.70;99.90
56044;DHT22;41912;51.022;3.664;2023-04-24T02:30:10;10.70;99.90
56044;DHT22;41912;51.022;3.664;2023-04-24T02:32:35;10.70;99.90
56044;DHT22;41912;51.022;3.664;2023-04-24T02:35:01;10.60;99.90
56044;DHT22;41912;51.022;3.664;2023-04-24T02:37:26;10.60;99.90
56044;DHT22;41912;51.022;3.664;2023-04-24T02:39:52;10.70;99.90
56044;DHT22;41912;51.022;3.664;2023-04-24T02:42:18;10.70;99.90
56044;DHT22;41912;51.022;3.664;2023-04-24T02:44:43;10.60;99.90
56044;DHT22;41912;51.022;3.664;2023-04-24T02:47:09;10.70;99.90
56044;DHT22;41912;51.022;3.664;2023-04-24T02:49:34;10.70;99.90
56044;DHT22;41912;51.022;3.664;2023-04-24T02:52:00;10.70;99.90
56044;DHT22;41912;51.022;3.664;2023-04-24T02:54:26;10.60;99.90
56044;DHT22;41912;51.022;3.664;2023-04-24T02:56:51;10.70;99.90
56044;DHT22;41912;51.022;3.664;2023-04-24T02:59:17;10.70;99.90
56044;DHT22;41912;51.022;3.664;2023-04-24T03:01:42;10.70;99.90
56044;DHT22;41912;51.022;3.664;2023-04-24T03:04:08;10.70;99.90
56044;DHT22;41912;51.022;3.664;2023-04-24T03:06:34;10.70;99.90
56044;DHT22;41912;51.022;3.664;2023-04-24T03:09:00;10.60;99.90
56044;DHT22;41912;51.022;3.664;2023-04-24T03:11:26;10.60;99.90
56044;DHT22;41912;51.022;3.664;2023-04-24T03:13:52;10.60;99.90
56044;DHT22;41912;51.022;3.664;2023-04-24T03:16:17;10.70;99.90
56044;DHT22;41912;51.022;3.664;2023-04-24T03:18:43;10.60;99.90
56044;DHT22;41912;51.022;3.664;2023-04-24T03:21:08;10.70;99.90
56044;DHT22;41912;51.022;3.664;2023-04-24T03:23:34;10.70;99.90
56044;DHT22;41912;51.022;3.664;2023-04-24T03:26:00;10.80;99.90
56044;DHT22;41912;51.022;3.664;2023-04-24T03:28:25;10.70;99.90
56044;DHT22;41912;51.022;3.664;2023-04-24T03:30:51;10.70;99.90
56044;DHT22;41912;51.022;3.664;2023-04-24T03:33:17;10.70;99.90
56044;DHT22;41912;51.022;3.664;2023-04-24T03:35:43;10.70;99.90
56044;DHT22;41912;51.022;3.664;2023-04-24T03:38:08;10.70;99.90
56044;DHT22;41912;51.022;3.664;2023-04-24T03:40:34;10.60;99.90
56044;DHT22;41912;51.022;3.664;2023-04-24T03:43:00;10.70;99.90
56044;DHT22;41912;51.022;3.664;2023-04-24T03:45:25;10.60;99.90
56044;DHT22;41912;51.022;3.664;2023-04-24T03:47:51;10.60;99.90
56044;DHT22;41912;51.022;3.664;2023-04-24T03:50:16;10.60;99.90
56044;DHT22;41912;51.022;3.664;2023-04-24T03:52:42;10.60;99.90
56044;DHT22;41912;51.022;3.664;2023-04-24T03:55:08;10.70;99.90
56044;DHT22;41912;51.022;3.664;2023-04-24T03:57:34;10.60;99.90
56044;DHT22;41912;51.022;3.664;2023-04-24T03:59:59;10.50;99.90
56044;DHT22;41912;51.022;3.664;2023-04-24T04:02:25;10.50;99.90
56044;DHT22;41912;51.022;3.664;2023-04-24T04:04:50;10.50;99.90
56044;DHT22;41912;51.022;3.664;2023-04-24T04:07:16;10.50;99.90
56044;DHT22;41912;51.022;3.664;2023-04-24T04:09:42;10.50;99.90
56044;DHT22;41912;51.022;3.664;2023-04-24T04:12:07;10.50;99.90
56044;DHT22;41912;51.022;3.664;2023-04-24T04:14:33;10.60;99.90
56044;DHT22;41912;51.022;3.664;2023-04-24T04:16:58;10.60;99.90
56044;DHT22;41912;51.022;3.664;2023-04-24T04:19:24;10.50;99.90
56044;DHT22;41912;51.022;3.664;2023-04-24T04:21:50;10.50;99.90
56044;DHT22;41912;51.022;3.664;2023-04-24T04:24:19;10.50;99.90
56044;DHT22;41912;51.022;3.664;2023-04-24T04:26:46;10.50;99.90
56044;DHT22;41912;51.022;3.664;2023-04-24T04:29:13;10.50;99.90
56044;DHT22;41912;51.022;3.664;2023-04-24T04:31:39;10.50;99.90
56044;DHT22;41912;51.022;3.664;2023-04-24T04:34:05;10.50;99.90
56044;DHT22;41912;51.022;3.664;2023-04-24T04:36:31;10.50;99.90
56044;DHT22;41912;51.022;3.664;2023-04-24T04:38:56;10.50;99.90
56044;DHT22;41912;51.022;3.664;2023-04-24T04:41:24;10.40;99.90
56044;DHT22;41912;51.022;3.664;2023-04-24T04:43:50;10.50;99.90
56044;DHT22;41912;51.022;3.664;2023-04-24T04:46:16;10.50;99.90
56044;DHT22;41912;51.022;3.664;2023-04-24T04:48:42;10.50;99.90
56044;DHT22;41912;51.022;3.664;2023-04-24T04:51:07;10.40;99.90
56044;DHT22;41912;51.022;3.664;2023-04-24T04:53:33;10.40;99.90
56044;DHT22;41912;51.022;3.664;2023-04-24T04:55:58;10.30;99.90
56044;DHT22;41912;51.022;3.664;2023-04-24T04:58:25;10.30;99.90
56044;DHT22;41912;51.022;3.664;2023-04-24T05:00:50;10.30;99.90
56044;DHT22;41912;51.022;3.664;2023-04-24T05:03:16;10.30;99.90
56044;DHT22;41912;51.022;3.664;2023-04-24T05:05:41;10.30;99.90
56044;DHT22;41912;51.022;3.664;2023-04-24T05:08:08;10.40;99.90
56044;DHT22;41912;51.022;3.664;2023-04-24T05:10:34;10.40;99.90
56044;DHT22;41912;51.022;3.664;2023-04-24T05:13:00;10.40;99.90
56044;DHT22;41912;51.022;3.664;2023-04-24T05:15:26;10.40;99.90
56044;DHT22;41912;51.022;3.664;2023-04-24T05:17:51;10.40;99.90
56044;DHT22;41912;51.022;3.664;2023-04-24T05:20:17;10.40;99.90
56044;DHT22;41912;51.022;3.664;2023-04-24T05:22:43;10.40;99.90
56044;DHT22;41912;51.022;3.664;2023-04-24T05:25:08;10.30;99.90
56044;DHT22;41912;51.022;3.664;2023-04-24T05:27:34;10.30;99.90
56044;DHT22;41912;51.022;3.664;2023-04-24T05:30:00;10.30;99.90
56044;DHT22;41912;51.022;3.664;2023-04-24T05:32:25;10.30;99.90
56044;DHT22;41912;51.022;3.664;2023-04-24T05:34:52;10.30;99.90
56044;DHT22;41912;51.022;3.664;2023-04-24T05:37:18;10.40;99.90
56044;DHT22;41912;51.022;3.664;2023-04-24T05:39:43;10.30;99.90
56044;DHT22;41912;51.022;3.664;2023-04-24T05:42:09;10.30;99.90
56044;DHT22;41912;51.022;3.664;2023-04-24T05:44:35;10.30;99.90
56044;DHT22;41912;51.022;3.664;2023-04-24T05:47:00;10.30;99.90
56044;DHT22;41912;51.022;3.664;2023-04-24T05:49:27;10.30;99.90
56044;DHT22;41912;51.022;3.664;2023-04-24T05:51:52;10.30;99.90
56044;DHT22;41912;51.022;3.664;2023-04-24T05:54:18;10.30;99.90
56044;DHT22;41912;51.022;3.664;2023-04-24T05:56:44;10.30;99.90
56044;DHT22;41912;51.022;3.664;2023-04-24T05:59:09;10.20;99.90
56044;DHT22;41912;51.022;3.664;2023-04-24T06:01:35;10.20;99.90
56044;DHT22;41912;51.022;3.664;2023-04-24T06:04:02;10.20;99.90
56044;DHT22;41912;51.022;3.664;2023-04-24T06:06:28;10.30;99.90
56044;DHT22;41912;51.022;3.664;2023-04-24T06:08:54;10.30;99.90
56044;DHT22;41912;51.022;3.664;2023-04-24T06:11:19;10.30;99.90
56044;DHT22;41912;51.022;3.664;2023-04-24T06:13:45;10.30;99.90
56044;DHT22;41912;51.022;3.664;2023-04-24T06:16:11;10.40;99.90
56044;DHT22;41912;51.022;3.664;2023-04-24T06:18:36;10.30;99.90
56044;DHT22;41912;51.022;3.664;2023-04-24T06:21:02;10.30;99.90
56044;DHT22;41912;51.022;3.664;2023-04-24T06:23:28;10.30;99.90
56044;DHT22;41912;51.022;3.664;2023-04-24T06:25:54;10.40;99.90
56044;DHT22;41912;51.022;3.664;2023-04-24T06:28:20;10.40;99.90
56044;DHT22;41912;51.022;3.664;2023-04-24T06:30:45;10.50;99.90
56044;DHT22;41912;51.022;3.664;2023-04-24T06:33:11;10.40;99.90
56044;DHT22;41912;51.022;3.664;2023-04-24T06:35:37;10.40;99.90
56044;DHT22;41912;51.022;3.664;2023-04-24T06:38:03;10.40;99.90
56044;DHT22;41912;51.022;3.664;2023-04-24T06:40:29;10.40;99.90
56044;DHT22;41912;51.022;3.664;2023-04-24T06:42:55;10.50;99.90
56044;DHT22;41912;51.022;3.664;2023-04-24T06:45:21;10.50;99.90
56044;DHT22;41912;51.022;3.664;2023-04-24T06:47:46;10.50;99.90
56044;DHT22;41912;51.022;3.664;2023-04-24T06:50:12;10.50;99.90
56044;DHT22;41912;51.022;3.664;2023-04-24T06:52:38;10.50;99.90
56044;DHT22;41912;51.022;3.664;2023-04-24T06:55:04;10.50;99.90
56044;DHT22;41912;51.022;3.664;2023-04-24T06:57:30;10.50;99.90
56044;DHT22;41912;51.022;3.664;2023-04-24T06:59:56;10.50;99.90
56044;DHT22;41912;51.022;3.664;2023-04-24T07:02:22;10.40;99.90
56044;DHT22;41912;51.022;3.664;2023-04-24T07:04:48;10.50;99.90
56044;DHT22;41912;51.022;3.664;2023-04-24T07:07:14;10.40;99.90
56044;DHT22;41912;51.022;3.664;2023-04-24T07:09:40;10.40;99.90
56044;DHT22;41912;51.022;3.664;2023-04-24T07:12:10;10.40;99.90
56044;DHT22;41912;51.022;3.664;2023-04-24T07:14:39;10.40;99.90
56044;DHT22;41912;51.022;3.664;2023-04-24T07:17:05;10.40;99.90
56044;DHT22;41912;51.022;3.664;2023-04-24T07:19:33;10.40;99.90
56044;DHT22;41912;51.022;3.664;2023-04-24T07:21:58;10.50;99.90
56044;DHT22;41912;51.022;3.664;2023-04-24T07:24:25;10.50;99.90
56044;DHT22;41912;51.022;3.664;2023-04-24T07:26:51;10.50;99.90
56044;DHT22;41912;51.022;3.664;2023-04-24T07:29:18;10.50;99.90
56044;DHT22;41912;51.022;3.664;2023-04-24T07:31:43;10.40;99.90
56044;DHT22;41912;51.022;3.664;2023-04-24T07:34:09;10.40;99.90
56044;DHT22;41912;51.022;3.664;2023-04-24T07:36:35;10.50;99.90
56044;DHT22;41912;51.022;3.664;2023-04-24T07:39:01;10.50;99.90
56044;DHT22;41912;51.022;3.664;2023-04-24T07:41:26;10.50;99.90
56044;DHT22;41912;51.022;3.664;2023-04-24T07:43:53;10.50;99.90
56044;DHT22;41912;51.022;3.664;2023-04-24T07:46:19;10.50;99.90
56044;DHT22;41912;51.022;3.664;2023-04-24T07:48:45;10.50;99.90
56044;DHT22;41912;51.022;3.664;2023-04-24T07:51:14;10.60;99.90
56044;DHT22;41912;51.022;3.664;2023-04-24T07:53:40;10.60;99.90
56044;DHT22;41912;51.022;3.664;2023-04-24T07:56:06;10.60;99.90
56044;DHT22;41912;51.022;3.664;2023-04-24T07:58:31;10.70;99.90
56044;DHT22;41912;51.022;3.664;2023-04-24T08:00:57;10.90;99.90
56044;DHT22;41912;51.022;3.664;2023-04-24T08:03:23;10.90;99.90
56044;DHT22;41912;51.022;3.664;2023-04-24T08:05:49;10.90;99.90
56044;DHT22;41912;51.022;3.664;2023-04-24T08:08:16;10.90;99.90
56044;DHT22;41912;51.022;3.664;2023-04-24T08:10:42;11.00;99.90
56044;DHT22;41912;51.022;3.664;2023-04-24T08:13:07;11.10;99.90
56044;DHT22;41912;51.022;3.664;2023-04-24T08:15:33;11.20;99.90
56044;DHT22;41912;51.022;3.664;2023-04-24T08:17:59;11.20;99.90
56044;DHT22;41912;51.022;3.664;2023-04-24T08:20:25;11.20;99.90
56044;DHT22;41912;51.022;3.664;2023-04-24T08:22:53;11.30;99.90
56044;DHT22;41912;51.022;3.664;2023-04-24T08:25:20;11.40;99.90
56044;DHT22;41912;51.022;3.664;2023-04-24T08:27:45;11.50;99.90
56044;DHT22;41912;51.022;3.664;2023-04-24T08:30:11;11.50;99.90
56044;DHT22;41912;51.022;3.664;2023-04-24T08:32:37;11.40;99.90
56044;DHT22;41912;51.022;3.664;2023-04-24T08:35:03;11.30;99.90
56044;DHT22;41912;51.022;3.664;2023-04-24T08:37:28;11.30;99.90
56044;DHT22;41912;51.022;3.664;2023-04-24T08:39:54;11.40;99.90
56044;DHT22;41912;51.022;3.664;2023-04-24T08:42:20;11.50;99.90
56044;DHT22;41912;51.022;3.664;2023-04-24T08:44:48;11.50;99.90
56044;DHT22;41912;51.022;3.664;2023-04-24T08:47:15;11.60;99.90
56044;DHT22;41912;51.022;3.664;2023-04-24T08:49:41;11.70;99.90
56044;DHT22;41912;51.022;3.664;2023-04-24T08:52:08;11.70;99.90
56044;DHT22;41912;51.022;3.664;2023-04-24T08:54:35;11.70;99.90
56044;DHT22;41912;51.022;3.664;2023-04-24T08:57:02;11.70;99.90
56044;DHT22;41912;51.022;3.664;2023-04-24T08:59:29;11.80;99.90
56044;DHT22;41912;51.022;3.664;2023-04-24T09:01:56;11.80;99.90
56044;DHT22;41912;51.022;3.664;2023-04-24T09:04:23;11.80;99.90
56044;DHT22;41912;51.022;3.664;2023-04-24T09:06:55;11.80;99.90
56044;DHT22;41912;51.022;3.664;2023-04-24T09:09:23;11.80;99.90
56044;DHT22;41912;51.022;3.664;2023-04-24T09:11:52;11.80;99.90
56044;DHT22;41912;51.022;3.664;2023-04-24T09:14:21;11.70;99.90
56044;DHT22;41912;51.022;3.664;2023-04-24T09:16:48;11.80;99.90
56044;DHT22;41912;51.022;3.664;2023-04-24T09:19:14;11.80;99.90
56044;DHT22;41912;51.022;3.664;2023-04-24T09:21:40;11.90;99.90
56044;DHT22;41912;51.022;3.664;2023-04-24T09:24:14;12.10;99.90
56044;DHT22;41912;51.022;3.664;2023-04-24T09:26:40;12.10;99.90
56044;DHT22;41912;51.022;3.664;2023-04-24T09:29:06;12.10;99.90
56044;DHT22;41912;51.022;3.664;2023-04-24T09:31:31;12.10;99.90
56044;DHT22;41912;51.022;3.664;2023-04-24T09:36:33;12.20;99.90
56044;DHT22;41912;51.022;3.664;2023-04-24T09:39:06;12.20;99.90
56044;DHT22;41912;51.022;3.664;2023-04-24T09:41:47;12.20;99.90
56044;DHT22;41912;51.022;3.664;2023-04-24T09:44:24;12.20;99.90
56044;DHT22;41912;51.022;3.664;2023-04-24T09:46:52;12.30;99.90
56044;DHT22;41912;51.022;3.664;2023-04-24T09:49:25;12.40;99.90
56044;DHT22;41912;51.022;3.664;2023-04-24T09:51:52;12.50;99.90
56044;DHT22;41912;51.022;3.664;2023-04-24T09:54:19;12.40;99.90
56044;DHT22;41912;51.022;3.664;2023-04-24T09:56:47;12.40;99.90
56044;DHT22;41912;51.022;3.664;2023-04-24T09:59:14;12.30;99.90
56044;DHT22;41912;51.022;3.664;2023-04-24T10:01:40;12.30;99.90
56044;DHT22;41912;51.022;3.664;2023-04-24T10:04:27;12.30;99.90
56044;DHT22;41912;51.022;3.664;2023-04-24T10:06:55;12.30;99.90
56044;DHT22;41912;51.022;3.664;2023-04-24T10:09:24;12.30;99.90
56044;DHT22;41912;51.022;3.664;2023-04-24T10:11:51;12.30;99.90
56044;DHT22;41912;51.022;3.664;2023-04-24T10:14:23;12.40;99.90
56044;DHT22;41912;51.022;3.664;2023-04-24T10:16:51;12.20;99.90
56044;DHT22;41912;51.022;3.664;2023-04-24T10:19:18;12.20;99.90
56044;DHT22;41912;51.022;3.664;2023-04-24T10:21:44;12.20;99.90
56044;DHT22;41912;51.022;3.664;2023-04-24T10:24:14;12.30;99.90
56044;DHT22;41912;51.022;3.664;2023-04-24T10:26:41;12.30;99.90
56044;DHT22;41912;51.022;3.664;2023-04-24T10:29:07;12.40;99.90
56044;DHT22;41912;51.022;3.664;2023-04-24T10:31:38;12.50;99.90
56044;DHT22;41912;51.022;3.664;2023-04-24T10:34:05;12.50;99.90
56044;DHT22;41912;51.022;3.664;2023-04-24T10:36:33;12.50;99.90
56044;DHT22;41912;51.022;3.664;2023-04-24T10:39:01;12.40;99.90
56044;DHT22;41912;51.022;3.664;2023-04-24T10:41:30;12.40;99.90
56044;DHT22;41912;51.022;3.664;2023-04-24T10:46:33;12.50;99.90
56044;DHT22;41912;51.022;3.664;2023-04-24T10:49:04;12.40;99.90
56044;DHT22;41912;51.022;3.664;2023-04-24T10:51:51;12.50;99.90
56044;DHT22;41912;51.022;3.664;2023-04-24T10:59:44;12.80;99.90
56044;DHT22;41912;51.022;3.664;2023-04-24T11:02:10;12.90;99.90
56044;DHT22;41912;51.022;3.664;2023-04-24T11:04:36;12.90;99.90
56044;DHT22;41912;51.022;3.664;2023-04-24T11:07:04;13.00;99.90
56044;DHT22;41912;51.022;3.664;2023-04-24T11:09:31;13.10;99.90
56044;DHT22;41912;51.022;3.664;2023-04-24T11:12:23;13.00;99.90
56044;DHT22;41912;51.022;3.664;2023-04-24T11:14:59;13.10;99.90
56044;DHT22;41912;51.022;3.664;2023-04-24T11:20:15;13.10;99.90
56044;DHT22;41912;51.022;3.664;2023-04-24T11:22:42;13.20;99.90
56044;DHT22;41912;51.022;3.664;2023-04-24T11:25:08;13.20;99.90
56044;DHT22;41912;51.022;3.664;2023-04-24T11:30:06;13.00;99.90
56044;DHT22;41912;51.022;3.664;2023-04-24T11:37:28;13.00;99.90
56044;DHT22;41912;51.022;3.664;2023-04-24T11:39:56;13.10;99.90
56044;DHT22;41912;51.022;3.664;2023-04-24T11:42:23;13.20;99.90
56044;DHT22;41912;51.022;3.664;2023-04-24T11:44:50;13.20;99.90
56044;DHT22;41912;51.022;3.664;2023-04-24T11:47:17;13.30;99.90
56044;DHT22;41912;51.022;3.664;2023-04-24T11:49:43;13.30;99.90
56044;DHT22;41912;51.022;3.664;2023-04-24T11:52:08;13.30;99.90
56044;DHT22;41912;51.022;3.664;2023-04-24T11:54:34;13.40;99.90
56044;DHT22;41912;51.022;3.664;2023-04-24T11:57:04;13.50;99.90
56044;DHT22;41912;51.022;3.664;2023-04-24T11:59:35;13.50;99.90
56044;DHT22;41912;51.022;3.664;2023-04-24T12:02:02;13.40;99.90
56044;DHT22;41912;51.022;3.664;2023-04-24T12:04:41;13.40;99.90
56044;DHT22;41912;51.022;3.664;2023-04-24T12:07:06;13.50;99.90
56044;DHT22;41912;51.022;3.664;2023-04-24T12:09:41;13.60;99.90
56044;DHT22;41912;51.022;3.664;2023-04-24T12:12:08;13.60;99.90
56044;DHT22;41912;51.022;3.664;2023-04-24T12:14:47;13.60;99.90
56044;DHT22;41912;51.022;3.664;2023-04-24T12:17:13;13.60;99.90
56044;DHT22;41912;51.022;3.664;2023-04-24T12:19:45;13.60;99.90
56044;DHT22;41912;51.022;3.664;2023-04-24T12:22:11;13.60;99.90
56044;DHT22;41912;51.022;3.664;2023-04-24T12:24:56;13.50;99.90
56044;DHT22;41912;51.022;3.664;2023-04-24T12:27:22;13.60;99.90
56044;DHT22;41912;51.022;3.664;2023-04-24T12:29:56;13.70;99.90
56044;DHT22;41912;51.022;3.664;2023-04-24T12:32:22;13.80;99.90
56044;DHT22;41912;51.022;3.664;2023-04-24T12:34:49;13.80;99.90
56044;DHT22;41912;51.022;3.664;2023-04-24T12:37:14;13.80;99.90
56044;DHT22;41912;51.022;3.664;2023-04-24T12:40:05;13.80;99.90
56044;DHT22;41912;51.022;3.664;2023-04-24T12:42:32;13.80;99.90
56044;DHT22;41912;51.022;3.664;2023-04-24T12:45:03;13.80;99.90
56044;DHT22;41912;51.022;3.664;2023-04-24T12:47:30;13.90;99.60
56044;DHT22;41912;51.022;3.664;2023-04-24T12:49:56;13.90;99.30
56044;DHT22;41912;51.022;3.664;2023-04-24T12:52:23;14.10;99.90
56044;DHT22;41912;51.022;3.664;2023-04-24T12:54:50;14.00;99.90
56044;DHT22;41912;51.022;3.664;2023-04-24T12:57:16;14.10;99.90
56044;DHT22;41912;51.022;3.664;2023-04-24T12:59:42;14.20;99.90
56044;DHT22;41912;51.022;3.664;2023-04-24T13:02:09;14.20;99.80
56044;DHT22;41912;51.022;3.664;2023-04-24T13:04:35;14.20;99.90
56044;DHT22;41912;51.022;3.664;2023-04-24T13:07:01;14.30;99.90
56044;DHT22;41912;51.022;3.664;2023-04-24T13:09:27;14.30;99.90
56044;DHT22;41912;51.022;3.664;2023-04-24T13:11:52;14.40;99.90
56044;DHT22;41912;51.022;3.664;2023-04-24T13:14:18;14.50;99.90
56044;DHT22;41912;51.022;3.664;2023-04-24T13:16:44;14.40;99.90
56044;DHT22;41912;51.022;3.664;2023-04-24T13:19:09;14.20;99.90
56044;DHT22;41912;51.022;3.664;2023-04-24T13:21:35;14.20;99.90
56044;DHT22;41912;51.022;3.664;2023-04-24T13:24:01;14.40;99.90
56044;DHT22;41912;51.022;3.664;2023-04-24T13:26:27;14.60;99.90
56044;DHT22;41912;51.022;3.664;2023-04-24T13:28:52;14.60;99.90
56044;DHT22;41912;51.022;3.664;2023-04-24T13:31:18;14.60;99.90
56044;DHT22;41912;51.022;3.664;2023-04-24T13:33:43;14.60;99.00
56044;DHT22;41912;51.022;3.664;2023-04-24T13:36:09;14.60;98.60
56044;DHT22;41912;51.022;3.664;2023-04-24T13:38:35;14.60;99.30
56044;DHT22;41912;51.022;3.664;2023-04-24T13:41:00;14.50;98.60
56044;DHT22;41912;51.022;3.664;2023-04-24T13:43:26;14.60;99.30
56044;DHT22;41912;51.022;3.664;2023-04-24T13:45:52;14.50;98.30
56044;DHT22;41912;51.022;3.664;2023-04-24T13:48:17;14.40;99.90
56044;DHT22;41912;51.022;3.664;2023-04-24T13:50:43;14.50;99.90
56044;DHT22;41912;51.022;3.664;2023-04-24T13:53:09;14.70;99.70
56044;DHT22;41912;51.022;3.664;2023-04-24T13:55:35;14.70;98.50
56044;DHT22;41912;51.022;3.664;2023-04-24T13:58:02;14.80;97.20
56044;DHT22;41912;51.022;3.664;2023-04-24T14:00:28;14.80;98.50
56044;DHT22;41912;51.022;3.664;2023-04-24T14:02:53;14.80;98.20
56044;DHT22;41912;51.022;3.664;2023-04-24T14:05:19;14.80;98.10
56044;DHT22;41912;51.022;3.664;2023-04-24T14:07:46;15.00;99.40
56044;DHT22;41912;51.022;3.664;2023-04-24T14:10:12;15.10;98.50
56044;DHT22;41912;51.022;3.664;2023-04-24T14:12:37;15.10;97.90
56044;DHT22;41912;51.022;3.664;2023-04-24T14:15:04;15.20;97.60
56044;DHT22;41912;51.022;3.664;2023-04-24T14:17:30;15.30;98.80
56044;DHT22;41912;51.022;3.664;2023-04-24T14:19:56;15.40;96.70
56044;DHT22;41912;51.022;3.664;2023-04-24T14:22:22;15.30;97.10
56044;DHT22;41912;51.022;3.664;2023-04-24T14:24:48;15.40;97.30
56044;DHT22;41912;51.022;3.664;2023-04-24T14:27:13;15.50;97.60
56044;DHT22;41912;51.022;3.664;2023-04-24T14:29:39;15.50;96.10
56044;DHT22;41912;51.022;3.664;2023-04-24T14:32:05;15.60;95.50
56044;DHT22;41912;51.022;3.664;2023-04-24T14:34:30;15.60;96.00
56044;DHT22;41912;51.022;3.664;2023-04-24T14:36:56;15.50;96.20
56044;DHT22;41912;51.022;3.664;2023-04-24T14:39:22;15.40;94.90
56044;DHT22;41912;51.022;3.664;2023-04-24T14:41:47;15.20;95.20
56044;DHT22;41912;51.022;3.664;2023-04-24T14:44:13;15.20;96.60
56044;DHT22;41912;51.022;3.664;2023-04-24T14:46:39;15.20;96.70
56044;DHT22;41912;51.022;3.664;2023-04-24T14:49:05;15.10;95.70
56044;DHT22;41912;51.022;3.664;2023-04-24T14:51:30;15.00;96.30
56044;DHT22;41912;51.022;3.664;2023-04-24T14:53:56;14.80;95.90
56044;DHT22;41912;51.022;3.664;2023-04-24T14:56:23;14.70;96.00
56044;DHT22;41912;51.022;3.664;2023-04-24T14:58:48;14.70;96.90
56044;DHT22;41912;51.022;3.664;2023-04-24T15:01:14;14.50;96.40
56044;DHT22;41912;51.022;3.664;2023-04-24T15:03:40;14.60;96.70
56044;DHT22;41912;51.022;3.664;2023-04-24T15:06:05;14.60;97.30
56044;DHT22;41912;51.022;3.664;2023-04-24T15:08:31;14.60;97.40
56044;DHT22;41912;51.022;3.664;2023-04-24T15:10:57;14.70;97.50
56044;DHT22;41912;51.022;3.664;2023-04-24T15:13:23;14.60;97.10
56044;DHT22;41912;51.022;3.664;2023-04-24T15:15:48;14.50;98.10
56044;DHT22;41912;51.022;3.664;2023-04-24T15:18:14;14.50;98.00
56044;DHT22;41912;51.022;3.664;2023-04-24T15:20:40;14.40;97.80
56044;DHT22;41912;51.022;3.664;2023-04-24T15:23:08;14.50;97.70
56044;DHT22;41912;51.022;3.664;2023-04-24T15:25:34;14.40;97.00
56044;DHT22;41912;51.022;3.664;2023-04-24T15:28:00;14.40;96.60
56044;DHT22;41912;51.022;3.664;2023-04-24T15:30:26;14.40;96.60
56044;DHT22;41912;51.022;3.664;2023-04-24T15:32:52;14.30;96.90
56044;DHT22;41912;51.022;3.664;2023-04-24T15:35:17;14.30;96.40
56044;DHT22;41912;51.022;3.664;2023-04-24T15:37:43;14.30;97.20
56044;DHT22;41912;51.022;3.664;2023-04-24T15:40:10;14.40;99.00
56044;DHT22;41912;51.022;3.664;2023-04-24T15:42:38;14.50;97.80
56044;DHT22;41912;51.022;3.664;2023-04-24T15:45:04;14.50;98.10
56044;DHT22;41912;51.022;3.664;2023-04-24T15:47:32;14.50;97.60